Time;durP1;ratioP1;P1;durP2;ratioP2;P2;SDS_P1;SDS_P2;PMS_P1;PMS_P2;Temp;Humidity;BMP_temperature;BMP_pressure;BME280_temperature;BME280_humidity;BME280_pressure;Samples;Min_cycle;Max_cycle;Signal;HPM_P1;HPM_P2
2021/01/18 00:00:02;;;;;;;;;;;18.90;35.00;;;;;;491566;240;1565;-53
2021/01/18 00:02:03;;;;;;;;;;;18.90;35.10;;;;;;491590;240;2222;-54
2021/01/18 00:04:04;;;;;;;;;;;18.90;35.10;;;;;;491643;240;1035;-53
2021/01/18 00:06:06;;;;;;;;;;;18.90;35.10;;;;;;491648;240;2117;-54
2021/01/18 00:08:07;;;;;;;;;;;18.90;35.10;;;;;;491822;240;1027;-54
2021/01/18 00:10:08;;;;;;;;;;;18.80;35.10;;;;;;491733;240;956;-53
2021/01/18 00:12:09;;;;;;;;;;;18.80;35.00;;;;;;491652;240;1057;-54
2021/01/18 00:14:11;;;;;;;;;;;18.80;35.10;;;;;;491647;240;1018;-53
2021/01/18 00:16:12;;;;;;;;;;;18.80;35.10;;;;;;491648;240;1128;-53
2021/01/18 00:18:13;;;;;;;;;;;18.80;35.10;;;;;;491710;240;1024;-54
2021/01/18 00:20:15;;;;;;;;;;;18.80;35.10;;;;;;491605;240;1084;-54
2021/01/18 00:22:16;;;;;;;;;;;18.80;35.10;;;;;;491708;240;1017;-53
2021/01/18 00:24:17;;;;;;;;;;;18.80;35.10;;;;;;491867;240;1020;-53
2021/01/18 00:26:18;;;;;;;;;;;18.80;35.10;;;;;;491645;240;2116;-54
2021/01/18 00:28:20;;;;;;;;;;;18.80;35.10;;;;;;491622;240;1007;-54
2021/01/18 00:30:21;;;;;;;;;;;18.80;35.20;;;;;;491614;238;1277;-53
2021/01/18 00:32:22;;;;;;;;;;;18.80;35.20;;;;;;491841;240;1067;-54
2021/01/18 00:34:24;;;;;;;;;;;18.70;35.10;;;;;;491626;240;1160;-53
2021/01/18 00:36:25;;;;;;;;;;;18.70;35.10;;;;;;491709;240;1045;-54
2021/01/18 00:38:26;;;;;;;;;;;18.70;35.10;;;;;;491609;240;1136;-54
2021/01/18 00:40:28;;;;;;;;;;;18.70;35.10;;;;;;491632;240;994;-54
2021/01/18 00:42:29;;;;;;;;;;;18.70;35.20;;;;;;491720;240;1161;-54
2021/01/18 00:44:30;;;;;;;;;;;18.70;35.20;;;;;;491659;240;1000;-54
2021/01/18 00:46:31;;;;;;;;;;;18.70;35.20;;;;;;491603;240;2124;-54
2021/01/18 00:48:33;;;;;;;;;;;18.70;35.20;;;;;;491568;240;1269;-54
2021/01/18 00:50:34;;;;;;;;;;;18.70;35.20;;;;;;491725;240;996;-53
2021/01/18 00:52:35;;;;;;;;;;;18.70;35.20;;;;;;491565;240;1196;-54
2021/01/18 00:54:36;;;;;;;;;;;18.70;35.20;;;;;;491677;240;941;-53
2021/01/18 00:56:38;;;;;;;;;;;18.70;35.20;;;;;;491659;240;1022;-52
2021/01/18 00:58:39;;;;;;;;;;;18.60;35.20;;;;;;491819;240;991;-53
2021/01/18 01:00:40;;;;;;;;;;;18.60;35.20;;;;;;491809;240;1179;-53
2021/01/18 01:02:42;;;;;;;;;;;18.70;35.20;;;;;;491689;240;1078;-54
2021/01/18 01:04:43;;;;;;;;;;;18.70;35.30;;;;;;491695;240;2225;-54
2021/01/18 01:06:44;;;;;;;;;;;18.60;35.20;;;;;;491634;240;1012;-54
2021/01/18 01:08:46;;;;;;;;;;;18.60;35.20;;;;;;491654;240;1063;-53
2021/01/18 01:10:47;;;;;;;;;;;18.70;35.30;;;;;;491670;240;1157;-53
2021/01/18 01:12:48;;;;;;;;;;;18.60;35.20;;;;;;491690;240;1078;-53
2021/01/18 01:14:49;;;;;;;;;;;18.60;35.30;;;;;;491806;240;985;-54
2021/01/18 01:16:51;;;;;;;;;;;18.60;35.30;;;;;;491642;240;1143;-53
2021/01/18 01:18:52;;;;;;;;;;;18.60;35.30;;;;;;491859;240;1058;-54
2021/01/18 01:20:53;;;;;;;;;;;18.60;35.30;;;;;;491590;240;1205;-53
2021/01/18 01:22:55;;;;;;;;;;;18.60;35.30;;;;;;491623;240;1122;-54
2021/01/18 01:24:56;;;;;;;;;;;18.60;35.30;;;;;;491641;240;2164;-53
2021/01/18 01:26:57;;;;;;;;;;;18.60;35.30;;;;;;491581;240;1199;-54
2021/01/18 01:28:59;;;;;;;;;;;18.60;35.30;;;;;;491701;240;997;-54
2021/01/18 01:31:00;;;;;;;;;;;18.60;35.30;;;;;;491626;238;1300;-54
2021/01/18 01:33:01;;;;;;;;;;;18.60;35.30;;;;;;491679;240;1039;-54
2021/01/18 01:35:03;;;;;;;;;;;18.60;35.30;;;;;;491612;240;1304;-53
2021/01/18 01:37:04;;;;;;;;;;;18.60;35.30;;;;;;491702;240;977;-54
2021/01/18 01:39:05;;;;;;;;;;;18.60;35.30;;;;;;491822;240;1075;-53
2021/01/18 01:41:06;;;;;;;;;;;18.60;35.30;;;;;;491631;240;946;-54
2021/01/18 01:43:08;;;;;;;;;;;18.60;35.30;;;;;;491617;240;1049;-54
2021/01/18 01:45:09;;;;;;;;;;;18.60;35.30;;;;;;491763;240;2180;-53
2021/01/18 01:47:10;;;;;;;;;;;18.60;35.30;;;;;;491623;240;1218;-53
2021/01/18 01:49:12;;;;;;;;;;;18.60;35.30;;;;;;491601;240;1328;-54
2021/01/18 01:51:13;;;;;;;;;;;18.60;35.30;;;;;;491633;240;1212;-54
2021/01/18 01:53:14;;;;;;;;;;;18.50;35.30;;;;;;491757;240;1018;-54
2021/01/18 01:55:15;;;;;;;;;;;18.60;35.30;;;;;;491658;240;1157;-53
2021/01/18 01:57:17;;;;;;;;;;;18.50;35.30;;;;;;491615;240;1039;-54
2021/01/18 01:59:18;;;;;;;;;;;18.50;35.30;;;;;;491683;240;1168;-54
2021/01/18 02:01:19;;;;;;;;;;;18.50;35.30;;;;;;491794;240;1129;-54
2021/01/18 02:03:21;;;;;;;;;;;18.50;35.30;;;;;;491804;240;1052;-54
2021/01/18 02:05:22;;;;;;;;;;;18.50;35.30;;;;;;491560;240;2205;-53
2021/01/18 02:07:23;;;;;;;;;;;18.50;35.30;;;;;;491629;240;1212;-53
2021/01/18 02:09:25;;;;;;;;;;;18.50;35.30;;;;;;491628;240;961;-54
2021/01/18 02:11:26;;;;;;;;;;;18.50;35.30;;;;;;492109;240;1303;-54
2021/01/18 02:13:27;;;;;;;;;;;18.50;35.30;;;;;;491909;240;1019;-54
2021/01/18 02:15:28;;;;;;;;;;;18.50;35.30;;;;;;491811;240;1047;-54
2021/01/18 02:17:30;;;;;;;;;;;18.50;35.30;;;;;;491733;240;1141;-53
2021/01/18 02:19:31;;;;;;;;;;;18.50;35.30;;;;;;491643;240;996;-54
2021/01/18 02:21:32;;;;;;;;;;;18.50;35.30;;;;;;491642;240;1350;-53
2021/01/18 02:23:34;;;;;;;;;;;18.50;35.30;;;;;;491741;240;1032;-54
2021/01/18 02:25:35;;;;;;;;;;;18.50;35.30;;;;;;491762;240;2133;-54
2021/01/18 02:27:36;;;;;;;;;;;18.50;35.30;;;;;;491616;240;1275;-54
2021/01/18 02:29:37;;;;;;;;;;;18.50;35.30;;;;;;491887;240;1039;-54
2021/01/18 02:31:39;;;;;;;;;;;18.50;35.40;;;;;;491880;240;1320;-54
2021/01/18 02:33:40;;;;;;;;;;;18.50;35.40;;;;;;491772;240;1057;-54
2021/01/18 02:35:41;;;;;;;;;;;18.50;35.30;;;;;;491670;240;1042;-54
2021/01/18 02:37:42;;;;;;;;;;;18.50;35.40;;;;;;491791;240;1066;-54
2021/01/18 02:39:44;;;;;;;;;;;18.50;35.30;;;;;;491663;240;960;-53
2021/01/18 02:41:45;;;;;;;;;;;18.50;35.40;;;;;;491673;240;1301;-53
2021/01/18 02:43:46;;;;;;;;;;;18.50;35.40;;;;;;491588;240;1030;-54
2021/01/18 02:45:48;;;;;;;;;;;18.40;35.30;;;;;;491770;240;2121;-54
2021/01/18 02:47:49;;;;;;;;;;;18.50;35.40;;;;;;491680;240;1332;-53
2021/01/18 02:49:50;;;;;;;;;;;18.40;34.00;;;;;;491872;240;1284;-54
2021/01/18 02:51:52;;;;;;;;;;;18.40;35.40;;;;;;491587;240;1457;-53
2021/01/18 02:53:53;;;;;;;;;;;18.40;34.10;;;;;;491647;240;1078;-54
2021/01/18 02:55:54;;;;;;;;;;;18.50;35.40;;;;;;491715;240;985;-54
2021/01/18 02:57:56;;;;;;;;;;;18.50;35.40;;;;;;491695;240;1114;-53
2021/01/18 02:59:57;;;;;;;;;;;18.50;35.40;;;;;;491638;240;1035;-54
2021/01/18 03:01:58;;;;;;;;;;;18.40;35.30;;;;;;491666;240;1129;-53
2021/01/18 03:03:59;;;;;;;;;;;18.40;35.30;;;;;;491651;240;931;-53
2021/01/18 03:06:02;;;;;;;;;;;18.50;35.40;;;;;;491634;240;2182;-54
2021/01/18 03:08:04;;;;;;;;;;;18.40;35.30;;;;;;491631;240;984;-54
2021/01/18 03:10:05;;;;;;;;;;;18.50;35.40;;;;;;491857;240;1232;-54
2021/01/18 03:12:06;;;;;;;;;;;18.40;35.40;;;;;;491651;240;1001;-54
2021/01/18 03:14:07;;;;;;;;;;;18.40;35.40;;;;;;491848;240;1094;-54
2021/01/18 03:16:09;;;;;;;;;;;18.40;35.40;;;;;;491602;240;1121;-53
2021/01/18 03:18:10;;;;;;;;;;;18.40;35.40;;;;;;491718;240;1274;-54
2021/01/18 03:20:11;;;;;;;;;;;18.40;35.40;;;;;;491638;240;1214;-53
2021/01/18 03:22:13;;;;;;;;;;;18.40;35.40;;;;;;491748;240;1048;-53
2021/01/18 03:24:14;;;;;;;;;;;18.40;35.40;;;;;;491800;240;1071;-54
2021/01/18 03:26:15;;;;;;;;;;;18.40;35.40;;;;;;491917;240;2172;-53
2021/01/18 03:28:16;;;;;;;;;;;18.40;34.10;;;;;;491689;240;946;-54
2021/01/18 03:30:18;;;;;;;;;;;18.40;35.40;;;;;;491718;240;1062;-54
2021/01/18 03:32:19;;;;;;;;;;;18.40;35.40;;;;;;491560;240;1166;-54
2021/01/18 03:34:20;;;;;;;;;;;18.40;35.40;;;;;;491657;240;1136;-54
2021/01/18 03:36:21;;;;;;;;;;;18.40;35.40;;;;;;491665;240;1051;-54
2021/01/18 03:38:23;;;;;;;;;;;18.40;35.40;;;;;;491958;240;1076;-54
2021/01/18 03:40:24;;;;;;;;;;;18.40;35.40;;;;;;491685;240;948;-54
2021/01/18 03:42:25;;;;;;;;;;;18.40;35.50;;;;;;491683;240;1058;-54
2021/01/18 03:44:27;;;;;;;;;;;18.40;35.40;;;;;;491606;240;1048;-54
2021/01/18 03:46:28;;;;;;;;;;;18.40;35.30;;;;;;491637;240;2136;-54
2021/01/18 03:48:29;;;;;;;;;;;18.40;35.30;;;;;;491711;240;1181;-53
2021/01/18 03:50:30;;;;;;;;;;;18.50;33.90;;;;;;491673;240;1017;-54
2021/01/18 03:52:32;;;;;;;;;;;18.50;35.20;;;;;;491632;240;1029;-54
2021/01/18 03:54:33;;;;;;;;;;;18.50;35.20;;;;;;491640;240;947;-53
2021/01/18 03:56:36;;;;;;;;;;;18.50;35.20;;;;;;491798;240;1049;-53
2021/01/18 03:58:37;;;;;;;;;;;18.50;35.10;;;;;;491636;240;1044;-54
2021/01/18 04:00:38;;;;;;;;;;;18.60;35.10;;;;;;491723;240;1055;-54
2021/01/18 04:02:40;;;;;;;;;;;18.60;35.10;;;;;;491676;240;1126;-53
2021/01/18 04:04:41;;;;;;;;;;;18.60;35.10;;;;;;491678;240;959;-54
2021/01/18 04:06:42;;;;;;;;;;;18.60;35.10;;;;;;491608;240;2148;-54
2021/01/18 04:08:44;;;;;;;;;;;18.70;35.10;;;;;;491606;240;970;-54
2021/01/18 04:10:45;;;;;;;;;;;18.60;35.00;;;;;;491667;240;1044;-54
2021/01/18 04:12:46;;;;;;;;;;;18.70;35.00;;;;;;491624;240;946;-53
2021/01/18 04:14:49;;;;;;;;;;;18.70;35.00;;;;;;491699;240;1005;-54
2021/01/18 04:16:49;;;;;;;;;;;18.70;34.90;;;;;;491713;240;2414;-53
2021/01/18 04:18:50;;;;;;;;;;;18.70;34.90;;;;;;491667;240;1160;-54
2021/01/18 04:20:51;;;;;;;;;;;18.80;34.90;;;;;;491629;240;1091;-54
2021/01/18 04:22:53;;;;;;;;;;;18.80;34.90;;;;;;491634;240;998;-54
2021/01/18 04:24:54;;;;;;;;;;;18.80;34.90;;;;;;491678;240;1067;-54
2021/01/18 04:26:55;;;;;;;;;;;18.80;34.90;;;;;;491589;240;2184;-54
2021/01/18 04:28:57;;;;;;;;;;;18.80;34.80;;;;;;491680;240;1087;-54
2021/01/18 04:30:58;;;;;;;;;;;18.90;34.90;;;;;;491592;240;1207;-54
2021/01/18 04:32:59;;;;;;;;;;;18.90;34.80;;;;;;491667;240;1206;-54
2021/01/18 04:35:01;;;;;;;;;;;18.90;34.80;;;;;;491742;240;1158;-54
2021/01/18 04:37:02;;;;;;;;;;;18.90;34.80;;;;;;491817;240;1151;-53
2021/01/18 04:39:03;;;;;;;;;;;18.90;34.70;;;;;;491603;240;1129;-53
2021/01/18 04:41:04;;;;;;;;;;;18.90;34.70;;;;;;491585;240;1221;-53
2021/01/18 04:43:06;;;;;;;;;;;18.90;34.70;;;;;;491574;240;1128;-54
2021/01/18 04:45:07;;;;;;;;;;;19.00;34.70;;;;;;491606;240;1357;-54
2021/01/18 04:47:08;;;;;;;;;;;19.00;34.70;;;;;;491543;240;2141;-54
2021/01/18 04:49:09;;;;;;;;;;;19.00;34.70;;;;;;491628;240;1194;-53
2021/01/18 04:51:11;;;;;;;;;;;19.00;34.60;;;;;;491630;240;1053;-54
2021/01/18 04:53:14;;;;;;;;;;;19.00;34.60;;;;;;491630;240;1030;-54
2021/01/18 04:55:15;;;;;;;;;;;19.10;34.60;;;;;;491671;240;1115;-54
2021/01/18 04:57:16;;;;;;;;;;;19.10;34.60;;;;;;491807;240;1348;-54
2021/01/18 04:59:18;;;;;;;;;;;19.10;34.60;;;;;;491671;240;1076;-54
2021/01/18 05:01:19;;;;;;;;;;;19.10;34.60;;;;;;491544;240;1234;-54
2021/01/18 05:03:20;;;;;;;;;;;19.10;34.60;;;;;;491654;240;1200;-54
2021/01/18 05:05:22;;;;;;;;;;;19.10;34.50;;;;;;491532;240;1245;-54
2021/01/18 05:07:23;;;;;;;;;;;19.10;34.50;;;;;;491577;240;2129;-53
2021/01/18 05:09:24;;;;;;;;;;;19.10;34.50;;;;;;491711;240;1044;-53
2021/01/18 05:11:26;;;;;;;;;;;19.10;34.50;;;;;;491596;240;1337;-54
2021/01/18 05:13:27;;;;;;;;;;;19.20;34.50;;;;;;491642;240;1006;-54
2021/01/18 05:15:28;;;;;;;;;;;19.20;34.50;;;;;;491745;240;1050;-54
2021/01/18 05:17:29;;;;;;;;;;;19.20;33.20;;;;;;491689;240;1028;-54
2021/01/18 05:19:31;;;;;;;;;;;19.20;34.50;;;;;;491573;240;1192;-54
2021/01/18 05:21:32;;;;;;;;;;;19.20;34.40;;;;;;491635;240;1029;-53
2021/01/18 05:23:33;;;;;;;;;;;19.20;34.40;;;;;;491588;240;1062;-53
2021/01/18 05:25:35;;;;;;;;;;;19.30;34.40;;;;;;491642;240;1030;-54
2021/01/18 05:27:36;;;;;;;;;;;19.30;34.40;;;;;;491524;240;2129;-54
2021/01/18 05:29:37;;;;;;;;;;;19.30;34.40;;;;;;491462;240;1030;-53
2021/01/18 05:31:39;;;;;;;;;;;19.30;34.40;;;;;;491406;240;1236;-54
2021/01/18 05:33:40;;;;;;;;;;;19.30;34.40;;;;;;491444;240;1149;-54
2021/01/18 05:35:41;;;;;;;;;;;19.30;34.40;;;;;;491324;240;1158;-54
2021/01/18 05:37:42;;;;;;;;;;;19.40;34.40;;;;;;491480;240;1086;-54
2021/01/18 05:39:44;;;;;;;;;;;19.30;34.30;;;;;;491468;240;972;-54
2021/01/18 05:41:45;;;;;;;;;;;19.40;34.30;;;;;;491307;240;1315;-53
2021/01/18 05:43:46;;;;;;;;;;;19.40;34.30;;;;;;491465;240;1044;-53
2021/01/18 05:45:47;;;;;;;;;;;19.40;34.30;;;;;;491401;240;1311;-53
2021/01/18 05:47:49;;;;;;;;;;;19.40;34.30;;;;;;491353;240;2184;-54
2021/01/18 05:49:50;;;;;;;;;;;19.40;34.30;;;;;;491428;240;1170;-54
2021/01/18 05:51:51;;;;;;;;;;;19.40;34.30;;;;;;491532;240;1081;-54
2021/01/18 05:53:53;;;;;;;;;;;19.40;34.20;;;;;;491521;240;1040;-54
2021/01/18 05:55:54;;;;;;;;;;;19.40;34.20;;;;;;491303;240;1043;-54
2021/01/18 05:57:55;;;;;;;;;;;19.40;34.20;;;;;;491346;240;1069;-54
2021/01/18 05:59:56;;;;;;;;;;;19.50;34.30;;;;;;491391;240;958;-54
2021/01/18 06:01:58;;;;;;;;;;;19.50;34.20;;;;;;491392;240;1240;-54
2021/01/18 06:03:59;;;;;;;;;;;19.50;34.20;;;;;;491379;240;1171;-53
2021/01/18 06:06:00;;;;;;;;;;;19.50;34.20;;;;;;491357;240;1177;-53
2021/01/18 06:08:02;;;;;;;;;;;19.50;34.20;;;;;;491344;240;2176;-53
2021/01/18 06:10:03;;;;;;;;;;;19.50;34.20;;;;;;491310;240;1256;-53
2021/01/18 06:12:04;;;;;;;;;;;19.50;34.20;;;;;;491379;240;1204;-53
2021/01/18 06:14:05;;;;;;;;;;;19.50;34.10;;;;;;491304;240;1086;-54
2021/01/18 06:16:09;;;;;;;;;;;19.50;34.10;;;;;;491207;240;1097;-54
2021/01/18 06:18:08;;;;;;;;;;;19.50;34.10;;;;;;491306;241;1331;-54
2021/01/18 06:20:09;;;;;;;;;;;19.50;34.10;;;;;;491408;240;1157;-54
2021/01/18 06:22:10;;;;;;;;;;;19.60;34.10;;;;;;491342;240;1189;-54
2021/01/18 06:24:12;;;;;;;;;;;19.60;34.20;;;;;;491277;240;1021;-53
2021/01/18 06:26:13;;;;;;;;;;;19.60;34.10;;;;;;491203;240;1086;-54
2021/01/18 06:28:14;;;;;;;;;;;19.60;34.10;;;;;;491172;240;2187;-54
2021/01/18 06:30:15;;;;;;;;;;;19.60;34.10;;;;;;491062;240;1029;-53
2021/01/18 06:32:17;;;;;;;;;;;19.60;34.10;;;;;;491150;240;1081;-54
2021/01/18 06:34:18;;;;;;;;;;;19.60;34.10;;;;;;491208;240;1032;-53
2021/01/18 06:36:19;;;;;;;;;;;19.60;34.10;;;;;;490963;240;1038;-54
2021/01/18 06:38:21;;;;;;;;;;;19.60;34.10;;;;;;491194;240;1268;-54
2021/01/18 06:40:22;;;;;;;;;;;19.70;34.10;;;;;;491152;240;979;-54
2021/01/18 06:42:23;;;;;;;;;;;19.70;34.10;;;;;;491159;240;1052;-53
2021/01/18 06:44:24;;;;;;;;;;;19.70;34.10;;;;;;491276;240;1101;-54
2021/01/18 06:46:26;;;;;;;;;;;19.70;34.00;;;;;;491154;240;1171;-54
2021/01/18 06:48:27;;;;;;;;;;;19.70;34.00;;;;;;491178;240;2180;-54
2021/01/18 06:50:28;;;;;;;;;;;19.70;34.00;;;;;;491110;240;1320;-54
2021/01/18 06:52:30;;;;;;;;;;;19.70;34.00;;;;;;491068;240;1117;-54
2021/01/18 06:54:31;;;;;;;;;;;19.70;34.00;;;;;;491057;240;1036;-53
2021/01/18 06:56:32;;;;;;;;;;;19.70;34.00;;;;;;491126;240;1181;-54
2021/01/18 06:58:35;;;;;;;;;;;19.70;34.00;;;;;;491142;240;1049;-54
2021/01/18 07:00:35;;;;;;;;;;;19.70;33.90;;;;;;491022;240;2021;-54
2021/01/18 07:02:36;;;;;;;;;;;19.80;34.00;;;;;;491137;240;1105;-54
2021/01/18 07:04:38;;;;;;;;;;;19.80;34.10;;;;;;491176;240;1174;-54
2021/01/18 07:06:39;;;;;;;;;;;19.80;34.00;;;;;;491149;240;1200;-54
2021/01/18 07:08:40;;;;;;;;;;;19.70;34.00;;;;;;491157;240;2196;-54
2021/01/18 07:10:41;;;;;;;;;;;19.80;34.00;;;;;;491196;240;1108;-53
2021/01/18 07:12:43;;;;;;;;;;;19.80;34.00;;;;;;491238;240;1191;-53
2021/01/18 07:14:44;;;;;;;;;;;19.80;34.00;;;;;;491171;240;1052;-54
2021/01/18 07:16:45;;;;;;;;;;;19.80;34.00;;;;;;491130;240;1052;-54
2021/01/18 07:18:47;;;;;;;;;;;19.80;34.00;;;;;;491207;240;1097;-54
2021/01/18 07:20:48;;;;;;;;;;;19.80;34.00;;;;;;491162;240;1218;-54
2021/01/18 07:22:49;;;;;;;;;;;19.80;34.00;;;;;;491236;240;1052;-54
2021/01/18 07:24:50;;;;;;;;;;;19.80;33.90;;;;;;491156;240;1269;-54
2021/01/18 07:26:56;;;;;;;;;;;19.80;33.90;;;;;;491446;239;2183;-54
2021/01/18 07:28:56;;;;;;;;;;;19.80;34.00;;;;;;491265;241;1516;-54
2021/01/18 07:30:57;;;;;;;;;;;19.80;33.90;;;;;;491084;240;1235;-53
2021/01/18 07:32:59;;;;;;;;;;;19.80;33.90;;;;;;491160;240;1184;-54
2021/01/18 07:35:00;;;;;;;;;;;19.80;33.90;;;;;;491150;240;1183;-54
2021/01/18 07:37:01;;;;;;;;;;;19.80;33.90;;;;;;491139;240;1235;-53
2021/01/18 07:39:03;;;;;;;;;;;19.80;33.90;;;;;;490823;240;1165;-53
2021/01/18 07:41:04;;;;;;;;;;;19.80;33.90;;;;;;490848;240;1245;-54
2021/01/18 07:43:05;;;;;;;;;;;19.90;33.90;;;;;;490973;240;1116;-53
2021/01/18 07:45:06;;;;;;;;;;;19.90;34.00;;;;;;490979;240;1207;-53
2021/01/18 07:47:08;;;;;;;;;;;19.90;32.60;;;;;;491062;240;2176;-54
2021/01/18 07:49:09;;;;;;;;;;;19.90;34.00;;;;;;490937;240;1205;-53
2021/01/18 07:51:10;;;;;;;;;;;19.90;32.60;;;;;;490771;240;1117;-54
2021/01/18 07:53:12;;;;;;;;;;;19.90;34.00;;;;;;490708;240;1321;-54
2021/01/18 07:55:13;;;;;;;;;;;19.90;34.00;;;;;;490792;240;1198;-53
2021/01/18 07:57:14;;;;;;;;;;;19.90;32.60;;;;;;490969;240;1232;-53
2021/01/18 07:59:15;;;;;;;;;;;19.90;34.00;;;;;;490912;240;1351;-53
2021/01/18 08:01:17;;;;;;;;;;;19.90;34.00;;;;;;490906;240;1074;-53
2021/01/18 08:03:20;;;;;;;;;;;19.90;34.00;;;;;;490962;240;1080;-54
2021/01/18 08:05:20;;;;;;;;;;;19.90;34.00;;;;;;491028;240;2266;-53
2021/01/18 08:07:21;;;;;;;;;;;19.90;34.00;;;;;;491020;240;2184;-54
2021/01/18 08:09:22;;;;;;;;;;;19.90;34.00;;;;;;490800;240;1055;-54
2021/01/18 08:11:24;;;;;;;;;;;19.90;32.60;;;;;;490857;240;1564;-53
2021/01/18 08:13:25;;;;;;;;;;;19.90;34.00;;;;;;490799;240;1012;-53
2021/01/18 08:15:26;;;;;;;;;;;19.90;33.90;;;;;;490963;240;1224;-53
2021/01/18 08:17:27;;;;;;;;;;;19.90;33.90;;;;;;491009;240;1138;-54
2021/01/18 08:19:30;;;;;;;;;;;19.90;33.90;;;;;;491017;240;1048;-54
2021/01/18 08:21:30;;;;;;;;;;;19.90;34.00;;;;;;490669;242;2032;-54
2021/01/18 08:23:31;;;;;;;;;;;19.90;33.90;;;;;;491004;240;1057;-53
2021/01/18 08:25:33;;;;;;;;;;;19.90;33.90;;;;;;490880;240;1547;-54
2021/01/18 08:27:34;;;;;;;;;;;19.90;33.90;;;;;;491203;240;2192;-53
2021/01/18 08:29:35;;;;;;;;;;;19.90;33.90;;;;;;491069;240;1246;-54
2021/01/18 08:31:36;;;;;;;;;;;19.90;33.90;;;;;;490916;240;1141;-54
2021/01/18 08:33:38;;;;;;;;;;;19.90;33.90;;;;;;491050;240;1098;-54
2021/01/18 08:35:39;;;;;;;;;;;19.90;33.90;;;;;;490725;240;1062;-54
2021/01/18 08:37:41;;;;;;;;;;;19.90;33.90;;;;;;490809;240;1246;-54
2021/01/18 08:39:42;;;;;;;;;;;19.90;33.90;;;;;;490883;240;1019;-53
2021/01/18 08:41:43;;;;;;;;;;;19.90;33.90;;;;;;490954;240;1201;-53
2021/01/18 08:43:44;;;;;;;;;;;19.90;32.60;;;;;;490964;240;1019;-54
2021/01/18 08:45:46;;;;;;;;;;;19.90;33.90;;;;;;490881;240;1280;-53
2021/01/18 08:47:47;;;;;;;;;;;19.90;33.90;;;;;;490926;240;2196;-54
2021/01/18 08:49:48;;;;;;;;;;;19.90;33.90;;;;;;490946;240;1068;-53
2021/01/18 08:51:50;;;;;;;;;;;19.90;33.90;;;;;;490968;238;1184;-53
2021/01/18 08:53:51;;;;;;;;;;;19.90;33.90;;;;;;490804;240;1094;-54
2021/01/18 08:55:52;;;;;;;;;;;20.00;32.60;;;;;;490747;240;1059;-54
2021/01/18 08:57:54;;;;;;;;;;;20.00;33.90;;;;;;490736;240;2315;-54
2021/01/18 08:59:55;;;;;;;;;;;20.00;33.90;;;;;;491024;240;1056;-53
2021/01/18 09:01:56;;;;;;;;;;;20.00;34.10;;;;;;490878;240;1159;-53
2021/01/18 09:03:58;;;;;;;;;;;20.10;32.50;;;;;;490975;240;1008;-53
2021/01/18 09:05:59;;;;;;;;;;;20.10;33.80;;;;;;490872;240;1183;-53
2021/01/18 09:08:00;;;;;;;;;;;20.10;33.80;;;;;;491044;240;2187;-54
2021/01/18 09:10:02;;;;;;;;;;;20.00;33.80;;;;;;490807;240;1009;-53
2021/01/18 09:12:03;;;;;;;;;;;20.00;33.90;;;;;;490782;240;1031;-54
2021/01/18 09:14:04;;;;;;;;;;;19.90;33.90;;;;;;490791;240;1089;-53
2021/01/18 09:16:06;;;;;;;;;;;19.90;34.00;;;;;;490900;240;1059;-54
2021/01/18 09:18:07;;;;;;;;;;;19.90;34.10;;;;;;490829;240;1213;-53
2021/01/18 09:20:08;;;;;;;;;;;19.80;34.10;;;;;;490678;240;1082;-53
2021/01/18 09:22:10;;;;;;;;;;;19.80;34.20;;;;;;490685;240;1153;-53
2021/01/18 09:24:11;;;;;;;;;;;19.70;34.20;;;;;;490825;240;1233;-53
2021/01/18 09:26:12;;;;;;;;;;;19.70;34.30;;;;;;490845;240;1312;-53
2021/01/18 09:28:14;;;;;;;;;;;19.60;34.40;;;;;;490799;240;2175;-54
2021/01/18 09:30:17;;;;;;;;;;;19.60;34.40;;;;;;490893;240;1166;-53
2021/01/18 09:32:16;;;;;;;;;;;19.60;33.20;;;;;;490835;242;1729;-53
2021/01/18 09:34:18;;;;;;;;;;;19.50;34.50;;;;;;490857;240;1099;-54
2021/01/18 09:36:19;;;;;;;;;;;19.50;33.20;;;;;;490821;240;1259;-53
2021/01/18 09:38:20;;;;;;;;;;;19.50;34.60;;;;;;490741;240;1136;-53
2021/01/18 09:40:22;;;;;;;;;;;19.40;33.40;;;;;;490862;240;1149;-54
2021/01/18 09:42:23;;;;;;;;;;;19.40;34.70;;;;;;490842;240;1042;-53
2021/01/18 09:44:24;;;;;;;;;;;19.40;34.70;;;;;;490871;240;1059;-53
2021/01/18 09:46:25;;;;;;;;;;;19.40;34.80;;;;;;490696;240;1195;-53
2021/01/18 09:48:27;;;;;;;;;;;19.30;33.50;;;;;;490797;240;2144;-54
2021/01/18 09:50:28;;;;;;;;;;;19.30;34.80;;;;;;490507;240;1203;-54
2021/01/18 09:52:29;;;;;;;;;;;19.30;34.80;;;;;;490683;240;1158;-53
2021/01/18 09:54:31;;;;;;;;;;;19.30;33.60;;;;;;490662;240;1032;-54
2021/01/18 09:56:32;;;;;;;;;;;19.30;35.00;;;;;;490841;240;1286;-54
2021/01/18 09:58:33;;;;;;;;;;;19.20;34.90;;;;;;491034;240;982;-54
2021/01/18 10:00:34;;;;;;;;;;;19.20;33.60;;;;;;490832;240;1183;-54
2021/01/18 10:02:36;;;;;;;;;;;19.20;34.90;;;;;;490870;240;1086;-54
2021/01/18 10:04:37;;;;;;;;;;;19.20;34.90;;;;;;490710;240;1029;-53
2021/01/18 10:06:38;;;;;;;;;;;19.20;35.00;;;;;;490678;240;1441;-53
2021/01/18 10:08:40;;;;;;;;;;;19.10;35.00;;;;;;490596;240;2188;-53
2021/01/18 10:10:41;;;;;;;;;;;19.10;35.00;;;;;;490644;240;1279;-53
2021/01/18 10:12:42;;;;;;;;;;;19.10;35.00;;;;;;490575;240;1228;-54
2021/01/18 10:14:43;;;;;;;;;;;19.10;35.00;;;;;;490806;240;1045;-54
2021/01/18 10:16:45;;;;;;;;;;;19.10;35.10;;;;;;490667;240;1086;-53
2021/01/18 10:18:48;;;;;;;;;;;19.10;35.00;;;;;;490878;240;1048;-53
2021/01/18 10:20:47;;;;;;;;;;;19.10;33.80;;;;;;490729;241;1745;-53
2021/01/18 10:22:48;;;;;;;;;;;19.10;35.10;;;;;;490741;240;1308;-53
2021/01/18 10:24:50;;;;;;;;;;;19.10;35.10;;;;;;490494;240;1292;-54
2021/01/18 10:26:51;;;;;;;;;;;19.00;33.80;;;;;;490618;240;1045;-54
2021/01/18 10:28:53;;;;;;;;;;;19.00;35.10;;;;;;490668;240;2184;-54
2021/01/18 10:30:54;;;;;;;;;;;19.00;33.80;;;;;;490749;240;1132;-53
2021/01/18 10:32:56;;;;;;;;;;;19.00;35.10;;;;;;490752;240;1139;-53
2021/01/18 10:34:57;;;;;;;;;;;19.00;35.20;;;;;;490750;240;1016;-54
2021/01/18 10:36:58;;;;;;;;;;;19.00;35.20;;;;;;490576;240;1222;-54
2021/01/18 10:39:00;;;;;;;;;;;19.00;35.20;;;;;;490699;240;1214;-53
2021/01/18 10:41:01;;;;;;;;;;;19.00;35.20;;;;;;490649;240;1051;-53
2021/01/18 10:43:02;;;;;;;;;;;18.90;35.20;;;;;;490581;240;1085;-53
2021/01/18 10:45:03;;;;;;;;;;;18.90;35.20;;;;;;490811;240;1137;-53
2021/01/18 10:47:05;;;;;;;;;;;18.90;35.20;;;;;;490869;242;1108;-53
2021/01/18 10:49:06;;;;;;;;;;;18.90;35.20;;;;;;490751;240;2180;-53
2021/01/18 10:51:08;;;;;;;;;;;18.90;33.90;;;;;;490665;240;1079;-53
2021/01/18 10:53:09;;;;;;;;;;;18.90;35.20;;;;;;490701;240;1172;-53
2021/01/18 10:55:10;;;;;;;;;;;18.90;34.00;;;;;;490702;240;1109;-54
2021/01/18 10:57:11;;;;;;;;;;;18.90;35.30;;;;;;490673;240;1132;-54
2021/01/18 10:59:13;;;;;;;;;;;;;;;;;;490821;240;1063;-54
2021/01/18 11:01:15;;;;;;;;;;;18.90;35.30;;;;;;485935;241;5686;-53
2021/01/18 11:03:16;;;;;;;;;;;18.80;35.30;;;;;;479462;246;1352;-54
2021/01/18 11:05:17;;;;;;;;;;;18.90;35.40;;;;;;479394;246;1460;-53
2021/01/18 11:07:18;;;;;;;;;;;18.80;35.30;;;;;;479549;247;1062;-53
2021/01/18 11:09:20;;;;;;;;;;;18.80;34.00;;;;;;479486;246;2194;-53
2021/01/18 11:11:21;;;;;;;;;;;18.80;35.40;;;;;;479536;246;1245;-54
2021/01/18 11:13:22;;;;;;;;;;;18.80;35.30;;;;;;479452;246;1557;-53
2021/01/18 11:15:23;;;;;;;;;;;18.80;35.30;;;;;;479380;246;1179;-54
2021/01/18 11:17:25;;;;;;;;;;;18.80;35.30;;;;;;479483;247;1187;-54
2021/01/18 11:19:26;;;;;;;;;;;18.80;35.30;;;;;;479393;247;1150;-54
2021/01/18 11:21:28;;;;;;;;;;;18.80;34.00;;;;;;479343;246;1363;-53
2021/01/18 11:23:29;;;;;;;;;;;18.80;35.40;;;;;;479451;247;1507;-54
2021/01/18 11:25:31;;;;;;;;;;;18.80;35.40;;;;;;479375;246;1229;-53
2021/01/18 11:27:33;;;;;;;;;;;18.80;35.40;;;;;;479380;246;2041;-53
2021/01/18 11:29:33;;;;;;;;;;;18.80;35.40;;;;;;479348;247;2214;-53
2021/01/18 11:31:34;;;;;;;;;;;18.80;35.40;;;;;;479839;246;1264;-53
2021/01/18 11:33:35;;;;;;;;;;;18.80;35.40;;;;;;479459;246;1300;-54
2021/01/18 11:35:37;;;;;;;;;;;18.80;35.40;;;;;;479564;246;1340;-54
2021/01/18 11:37:38;;;;;;;;;;;18.80;35.40;;;;;;479513;247;1254;-53
2021/01/18 11:39:39;;;;;;;;;;;18.80;35.40;;;;;;479362;246;1264;-53
2021/01/18 11:41:40;;;;;;;;;;;18.80;35.40;;;;;;479183;246;1491;-53
2021/01/18 11:43:42;;;;;;;;;;;18.80;35.40;;;;;;479289;246;1345;-53
2021/01/18 11:45:43;;;;;;;;;;;18.80;35.40;;;;;;479257;246;1231;-53
2021/01/18 11:47:44;;;;;;;;;;;18.80;35.40;;;;;;479301;247;1283;-54
2021/01/18 11:49:46;;;;;;;;;;;18.80;34.10;;;;;;479654;246;2210;-54
2021/01/18 11:51:47;;;;;;;;;;;18.80;35.40;;;;;;479204;246;1177;-54
2021/01/18 11:53:49;;;;;;;;;;;18.80;35.50;;;;;;479603;246;1242;-53
2021/01/18 11:55:50;;;;;;;;;;;18.80;35.40;;;;;;479206;246;1238;-54